Time;durP1;ratioP1;P1;durP2;ratioP2;P2;SDS_P1;SDS_P2;PMS_P1;PMS_P2;Temp;Humidity;BMP_temperature;BMP_pressure;BME280_temperature;BME280_humidity;BME280_pressure;Samples;Min_cycle;Max_cycle;Signal;HPM_P1;HPM_P2
2021/12/21 07:00:36;;;;;;;30.30;13.70;;;;;;;-2.96;88.78;99226.14;407375;1349;638319;-40
2021/12/21 07:10:44;;;;;;;26.60;12.80;;;;;;;-2.74;88.70;99240.86;414302;1317;5517941;-41
2021/12/21 07:20:48;;;;;;;18.70;10.60;;;;;;;-2.60;88.59;99251.56;418326;1319;108978;-41
2021/12/21 07:30:52;;;;;;;19.00;10.80;;;;;;;-2.52;88.29;99264.86;418166;1317;94990;-39
2021/12/21 07:40:56;;;;;;;22.90;10.40;;;;;;;-2.40;88.21;99276.27;418216;1316;94859;-41
2021/12/21 07:51:02;;;;;;;19.30;7.10;;;;;;;-2.40;87.92;99273.36;418260;1316;94706;-40
2021/12/21 08:01:07;;;;;;;26.60;8.20;;;;;;;-2.00;88.03;99282.11;418250;1316;108897;-40
2021/12/21 08:21:17;;;;;;;11.40;6.20;;;;;;;-1.70;87.16;99301.97;419798;1313;95930;-41
2021/12/21 08:31:21;;;;;;;8.60;4.70;;;;;;;-1.98;86.93;99307.30;419453;1316;108502;-40
2021/12/21 08:41:26;;;;;;;5.80;2.50;;;;;;;-2.13;86.30;99323.17;419915;1313;95905;-42
2021/12/21 08:51:31;;;;;;;15.90;9.30;;;;;;;-1.98;86.16;99330.08;420164;1313;108880;-42
2021/12/21 09:01:34;;;;;;;22.20;9.40;;;;;;;-0.78;86.27;99334.11;420019;1313;96322;-39
2021/12/21 09:11:38;;;;;;;17.10;6.40;;;;;;;-1.04;83.90;99333.01;419909;1313;95403;-40
2021/12/21 09:21:42;;;;;;;8.00;3.70;;;;;;;-0.93;83.45;99336.82;420159;1313;95438;-40
2021/12/21 09:31:46;;;;;;;19.60;9.50;;;;;;;-0.72;82.74;99339.25;420551;1313;109027;-40
2021/12/21 09:41:50;;;;;;;16.30;8.50;;;;;;;-0.91;82.57;99339.11;419642;1316;96546;-41
2021/12/21 09:51:53;;;;;;;16.30;8.30;;;;;;;-0.76;82.15;99335.47;419742;1316;95637;-40
2021/12/21 10:11:59;;;;;;;16.00;8.00;;;;;;;-0.97;80.90;99337.53;419896;1315;95390;-41
2021/12/21 10:22:13;;;;;;;16.40;7.20;;;;;;;-0.97;81.11;99336.00;419664;1315;95701;-40
2021/12/21 10:32:19;;;;;;;9.10;3.10;;;;;;;-1.01;80.35;99334.67;419635;1316;108972;-40
2021/12/21 10:42:23;;;;;;;15.30;6.20;;;;;;;-1.02;80.04;99330.57;419721;1313;95399;-40
2021/12/21 10:52:27;;;;;;;13.00;6.00;;;;;;;-0.95;80.01;99326.20;419651;1315;109541;-40
2021/12/21 11:02:34;;;;;;;10.00;6.00;;;;;;;-1.12;79.74;99322.15;419556;1316;95327;-41
2021/12/21 11:12:45;;;;;;;9.70;4.60;;;;;;;-1.08;79.28;99315.08;419733;1315;96282;-40
2021/12/21 11:22:54;;;;;;;13.20;4.80;;;;;;;-1.03;79.60;99309.34;419668;1315;107901;-40
2021/12/21 11:33:01;;;;;;;13.40;6.30;;;;;;;-1.03;79.44;99309.02;419462;1314;95533;-40
2021/12/21 11:43:12;;;;;;;23.60;10.10;;;;;;;-1.04;79.66;99303.25;419610;1316;95878;-39
2021/12/21 11:53:19;;;;;;;10.60;5.40;;;;;;;-1.04;79.54;99301.70;419748;1314;109757;-41
2021/12/21 12:03:25;;;;;;;19.30;8.40;;;;;;;-0.86;79.65;99299.54;420386;1311;108909;-41
2021/12/21 12:13:29;;;;;;;15.80;6.40;;;;;;;-0.83;79.09;99301.33;420519;1310;109025;-42
2021/12/21 12:23:43;;;;;;;14.60;6.40;;;;;;;-0.76;78.99;99296.85;420392;1312;97116;-40
2021/12/21 12:33:48;;;;;;;15.00;6.90;;;;;;;-0.73;79.21;99299.66;420303;1312;109454;-41
2021/12/21 12:43:52;;;;;;;33.80;14.20;;;;;;;-0.77;79.30;99305.77;420641;1312;108964;-41
2021/12/21 12:53:56;;;;;;;18.70;8.30;;;;;;;-0.92;78.72;99312.92;420486;1311;95377;-41
2021/12/21 13:04:08;;;;;;;12.30;6.10;;;;;;;-1.03;78.24;99310.22;421310;1309;96441;-40
2021/12/21 13:14:16;;;;;;;11.90;6.20;;;;;;;-1.06;78.46;99311.21;421232;1309;108974;-40
2021/12/21 13:34:29;;;;;;;15.60;8.40;;;;;;;-1.27;78.75;99310.68;421278;1309;95287;-40
2021/12/21 13:44:35;;;;;;;24.20;9.90;;;;;;;-1.33;78.97;99310.75;421221;1309;109772;-40
2021/12/21 13:54:38;;;;;;;46.30;17.20;;;;;;;-1.37;79.06;99316.56;421210;1309;109646;-40
2021/12/21 14:04:50;;;;;;;54.80;21.20;;;;;;;-1.37;79.20;99320.29;421319;1308;95824;-41
2021/12/21 14:14:54;;;;;;;32.20;12.60;;;;;;;-1.38;78.97;99323.12;421270;1309;96614;-40
2021/12/21 14:24:58;;;;;;;25.70;11.50;;;;;;;-1.61;78.80;99326.19;421340;1310;108911;-40
2021/12/21 14:35:11;;;;;;;63.50;25.10;;;;;;;-1.89;78.98;99328.27;421325;1310;96710;-39
2021/12/21 14:45:14;;;;;;;56.00;22.40;;;;;;;-2.07;79.06;99321.09;421404;1309;95386;-40
2021/12/21 14:55:23;;;;;;;93.80;39.00;;;;;;;-2.30;79.09;99321.98;421444;1309;96059;-40
2021/12/21 15:05:29;;;;;;;77.90;32.50;;;;;;;-2.51;79.02;99318.94;421009;1309;586944;-40
2021/12/21 15:15:33;;;;;;;153.20;57.70;;;;;;;-2.68;79.18;99322.14;421528;1309;95393;-40
2021/12/21 15:25:38;;;;;;;218.10;81.20;;;;;;;-2.77;79.50;99315.98;421276;1309;96832;-41
2021/12/21 15:35:42;;;;;;;103.50;35.20;;;;;;;-2.79;79.58;99317.05;421376;1309;108871;-41
2021/12/21 15:45:45;;;;;;;119.50;50.30;;;;;;;-2.80;79.55;99311.72;421596;1309;95709;-40
2021/12/21 15:55:52;;;;;;;72.70;27.60;;;;;;;-2.81;79.94;99309.12;421627;1310;95579;-42
2021/12/21 16:05:56;;;;;;;67.90;26.70;;;;;;;-2.80;80.02;99315.36;421178;1310;108852;-40
2021/12/21 16:16:00;;;;;;;39.10;18.90;;;;;;;-2.75;79.84;99314.95;422412;1304;95647;-40
2021/12/21 16:26:05;;;;;;;21.10;12.30;;;;;;;-2.63;79.98;99318.23;422429;1307;96204;-40
2021/12/21 16:36:09;;;;;;;59.30;21.60;;;;;;;-2.54;79.87;99315.77;422354;1307;108237;-42
2021/12/21 16:46:15;;;;;;;54.00;19.80;;;;;;;-2.50;80.14;99316.14;422686;1307;96800;-41
2021/12/21 16:56:19;;;;;;;69.40;26.50;;;;;;;-2.55;80.35;99326.02;422727;1307;108893;-41
2021/12/21 17:06:23;;;;;;;95.20;41.50;;;;;;;-2.64;80.19;99322.60;422658;1304;96825;-39
2021/12/21 17:26:31;;;;;;;89.80;30.10;;;;;;;-2.74;80.46;99333.52;422482;1307;96176;-41
2021/12/21 17:36:35;;;;;;;46.60;19.50;;;;;;;-2.72;80.42;99337.63;422359;1307;108529;-40
2021/12/21 17:46:39;;;;;;;32.60;16.90;;;;;;;-2.67;80.50;99335.29;422608;1307;95357;-41
2021/12/21 17:56:43;;;;;;;31.50;14.90;;;;;;;-2.51;80.45;99336.90;422520;1306;109713;-40
2021/12/21 18:06:46;;;;;;;45.80;20.10;;;;;;;-2.36;80.53;99335.80;422481;1307;108832;-41
2021/12/21 18:26:54;;;;;;;48.90;23.40;;;;;;;-2.44;80.56;99336.98;422499;1307;109239;-40
2021/12/21 18:36:57;;;;;;;64.80;26.50;;;;;;;-2.54;80.56;99336.85;422395;1307;96612;-41
2021/12/21 18:47:01;;;;;;;53.40;24.80;;;;;;;-2.61;80.75;99333.58;422686;1307;95309;-40
2021/12/21 18:57:05;;;;;;;49.10;21.60;;;;;;;-2.66;80.72;99342.67;422565;1307;96949;-42
2021/12/21 19:07:08;;;;;;;61.90;27.20;;;;;;;-2.72;80.70;99352.29;422512;1307;108739;-40
2021/12/21 19:17:12;;;;;;;88.40;35.60;;;;;;;-2.69;80.82;99349.30;422394;1307;96096;-41
2021/12/21 19:27:16;;;;;;;57.50;26.80;;;;;;;-2.53;80.72;99351.09;422595;1307;109912;-41
2021/12/21 19:37:20;;;;;;;56.20;25.70;;;;;;;-2.38;80.83;99352.25;422626;1307;108856;-40
2021/12/21 19:47:24;;;;;;;71.60;32.90;;;;;;;-2.39;81.06;99350.38;422410;1310;95381;-40
2021/12/21 19:57:28;;;;;;;48.90;21.30;;;;;;;-2.46;81.02;99351.31;422634;1307;109735;-42
2021/12/21 20:07:32;;;;;;;58.00;23.70;;;;;;;-2.56;81.06;99354.46;422627;1307;95554;-40
2021/12/21 20:17:37;;;;;;;57.40;24.30;;;;;;;-2.65;81.01;99361.73;422419;1307;95991;-40
2021/12/21 20:27:41;;;;;;;64.30;27.40;;;;;;;-2.72;81.28;99369.43;422156;1307;95539;-40
2021/12/21 20:37:49;;;;;;;62.10;27.00;;;;;;;-2.79;81.36;99375.14;422627;1307;109789;-40
2021/12/21 20:57:56;;;;;;;42.20;21.00;;;;;;;-2.61;81.32;99378.82;422642;1307;109823;-39
2021/12/21 21:08:03;;;;;;;62.30;24.60;;;;;;;-2.43;81.48;99379.74;422452;1307;108855;-40
2021/12/21 21:18:06;;;;;;;61.60;26.10;;;;;;;-2.43;81.42;99384.06;422588;1307;95491;-41
2021/12/21 21:28:13;;;;;;;59.20;25.70;;;;;;;-2.55;81.42;99388.48;422784;1307;96697;-40
2021/12/21 21:38:18;;;;;;;73.00;30.30;;;;;;;-2.65;81.48;99390.72;422479;1307;108719;-40
2021/12/21 21:48:25;;;;;;;53.80;24.30;;;;;;;-2.68;81.69;99393.02;422434;1310;96923;-41
2021/12/21 21:58:30;;;;;;;69.00;29.60;;;;;;;-2.73;81.61;99406.64;422658;1307;109736;-40
2021/12/21 22:08:33;;;;;;;45.20;22.10;;;;;;;-2.70;81.83;99404.23;422506;1310;96085;-40
2021/12/21 22:18:38;;;;;;;46.40;21.60;;;;;;;-2.58;81.74;99401.70;422447;1307;95733;-39
2021/12/21 22:28:43;;;;;;;48.60;22.70;;;;;;;-2.43;81.60;99405.16;422649;1307;109676;-39
2021/12/21 22:38:49;;;;;;;66.90;26.60;;;;;;;-2.46;81.78;99410.54;422545;1310;96179;-40
2021/12/21 22:48:53;;;;;;;61.80;29.00;;;;;;;-2.55;81.90;99407.80;422668;1312;96928;-39
2021/12/21 22:58:57;;;;;;;61.30;27.30;;;;;;;-2.61;81.94;99410.22;422440;1307;96565;-42
2021/12/21 23:19:04;;;;;;;53.20;22.30;;;;;;;-2.74;82.26;99414.27;422466;1313;96173;-40
2021/12/21 23:29:08;;;;;;;42.30;22.50;;;;;;;-2.72;82.16;99418.41;422385;1312;109894;-41
2021/12/21 23:49:15;;;;;;;37.30;17.10;;;;;;;-2.51;82.28;99415.13;422372;1311;97467;-40
2021/12/21 23:59:21;;;;;;;48.00;21.90;;;;;;;-2.50;82.48;99415.02;422666;1307;109133;-40
